Back to Top

Language: 

My Weather Underground Personal Weather Station Historical Data with Graphs...

Delerius Weather Station Historical Data
Daily Summary for March 17, 2017 Units:  Both    English   Metric
« Previous Day
Next Day »
Daily Weekly Monthly Yearly Custom
  High: Low: Average:
Temperature: 52.3 °F /  11.3 °C 38.7 °F /  3.7 °C 45.2 °F /  7.3 °C
Dew Point: 49.0 °F /  9.4 °C 34.4 °F /  1.3 °C 40.9 °F /  4.9 °C
Humidity: 91 % 80 % 85 %
Wind Speed: 21.0 mph /  33.8 km/h - 12.6 mph /  20.3 km/h
Wind Gust: 36.0 mph /  57.9 km/h - -
Wind:- - WSW
Pressure: 30.06 in /  1017.8 hPa 29.56 in /  1000.9 hPa -
Precipitation: 0.01 in /  0.25 mm    
Historical Graphs
 
 
Tabular Data for March 17, 2017
Time Temperature Dew Point Pressure Wind Wind Speed Wind Gust Humidity Rainfall Rate (Hourly) solar Conditions
00:00 40.6 °F /  4.8 °C 35.6 °F /  2 °C 30.06 in /  1017.8 hPa West 8.0 mph /  12.9 km/h 13.0 mph /  20.9 km/h 82 % 0.00 in /  0 mm 0 W/m2
00:05 40.5 °F /  4.7 °C 35.4 °F /  1.9 °C 30.05 in /  1017.5 hPa West 8.0 mph /  12.9 km/h 13.0 mph /  20.9 km/h 82 % 0.00 in /  0 mm 0 W/m2
00:10 40.5 °F /  4.7 °C 35.4 °F /  1.9 °C 30.05 in /  1017.5 hPa West 7.0 mph /  11.3 km/h 12.0 mph /  19.3 km/h 82 % 0.00 in /  0 mm 0 W/m2
00:15 40.3 °F /  4.6 °C 35.2 °F /  1.8 °C 30.05 in /  1017.5 hPa West 6.0 mph /  9.7 km/h 11.0 mph /  17.7 km/h 82 % 0.00 in /  0 mm 0 W/m2
00:20 39.9 °F /  4.4 °C 34.9 °F /  1.6 °C 30.05 in /  1017.5 hPa West 6.0 mph /  9.7 km/h 9.0 mph /  14.5 km/h 82 % 0.00 in /  0 mm 0 W/m2
00:25 39.7 °F /  4.3 °C 35.0 °F /  1.7 °C 30.05 in /  1017.5 hPa West 5.0 mph /  8 km/h 8.0 mph /  12.9 km/h 83 % 0.00 in /  0 mm 0 W/m2
00:30 39.6 °F /  4.2 °C 34.8 °F /  1.6 °C 30.05 in /  1017.5 hPa WNW 5.0 mph /  8 km/h 8.0 mph /  12.9 km/h 83 % 0.00 in /  0 mm 0 W/m2
00:35 39.4 °F /  4.1 °C 34.6 °F /  1.4 °C 30.06 in /  1017.8 hPa West 5.0 mph /  8 km/h 8.0 mph /  12.9 km/h 83 % 0.00 in /  0 mm 0 W/m2
00:40 39.2 °F /  4 °C 34.8 °F /  1.6 °C 30.06 in /  1017.8 hPa West 4.0 mph /  6.4 km/h 7.0 mph /  11.3 km/h 84 % 0.00 in /  0 mm 0 W/m2
00:45 39.0 °F /  3.9 °C 34.6 °F /  1.4 °C 30.05 in /  1017.5 hPa West 3.0 mph /  4.8 km/h 8.0 mph /  12.9 km/h 84 % 0.00 in /  0 mm 0 W/m2
00:50 39.0 °F /  3.9 °C 34.6 °F /  1.4 °C 30.05 in /  1017.5 hPa West 5.0 mph /  8 km/h 9.0 mph /  14.5 km/h 84 % 0.00 in /  0 mm 0 W/m2
00:55 38.8 °F /  3.8 °C 34.4 °F /  1.3 °C 30.05 in /  1017.5 hPa West 6.0 mph /  9.7 km/h 9.0 mph /  14.5 km/h 84 % 0.00 in /  0 mm 0 W/m2
01:00 38.8 °F /  3.8 °C 34.4 °F /  1.3 °C 30.05 in /  1017.5 hPa WNW 5.0 mph /  8 km/h 9.0 mph /  14.5 km/h 84 % 0.00 in /  0 mm 0 W/m2
01:05 38.8 °F /  3.8 °C 34.4 °F /  1.3 °C 30.05 in /  1017.5 hPa WNW 6.0 mph /  9.7 km/h 8.0 mph /  12.9 km/h 84 % 0.00 in /  0 mm 0 W/m2
01:10 38.8 °F /  3.8 °C 34.4 °F /  1.3 °C 30.05 in /  1017.5 hPa WNW 6.0 mph /  9.7 km/h 10.0 mph /  16.1 km/h 84 % 0.00 in /  0 mm 0 W/m2
01:15 38.7 °F /  3.7 °C 34.5 °F /  1.4 °C 30.05 in /  1017.5 hPa WNW 6.0 mph /  9.7 km/h 10.0 mph /  16.1 km/h 85 % 0.00 in /  0 mm 0 W/m2
01:20 38.7 °F /  3.7 °C 34.5 °F /  1.4 °C 30.05 in /  1017.5 hPa WNW 6.0 mph /  9.7 km/h 10.0 mph /  16.1 km/h 85 % 0.00 in /  0 mm 0 W/m2
01:25 38.7 °F /  3.7 °C 34.5 °F /  1.4 °C 30.05 in /  1017.5 hPa WNW 6.0 mph /  9.7 km/h 10.0 mph /  16.1 km/h 85 % 0.00 in /  0 mm 0 W/m2
01:30 38.7 °F /  3.7 °C 34.5 °F /  1.4 °C 30.05 in /  1017.5 hPa WNW 5.0 mph /  8 km/h 9.0 mph /  14.5 km/h 85 % 0.00 in /  0 mm 0 W/m2
01:35 38.7 °F /  3.7 °C 34.5 °F /  1.4 °C 30.05 in /  1017.5 hPa WNW 5.0 mph /  8 km/h 8.0 mph /  12.9 km/h 85 % 0.00 in /  0 mm 0 W/m2
01:40 38.7 °F /  3.7 °C 34.5 °F /  1.4 °C 30.05 in /  1017.5 hPa West 5.0 mph /  8 km/h 8.0 mph /  12.9 km/h 85 % 0.00 in /  0 mm 0 W/m2
01:41 38.7 °F /  3.7 °C 34.5 °F /  1.4 °C 30.05 in /  1017.5 hPa West 5.0 mph /  8 km/h 8.0 mph /  12.9 km/h 85 % 0.00 in /  0 mm 0 W/m2
01:46 38.7 °F /  3.7 °C 34.5 °F /  1.4 °C 30.05 in /  1017.5 hPa West 5.0 mph /  8 km/h 10.0 mph /  16.1 km/h 85 % 0.00 in /  0 mm 0 W/m2
01:51 38.7 °F /  3.7 °C 34.5 °F /  1.4 °C 30.04 in /  1017.2 hPa West 5.0 mph /  8 km/h 11.0 mph /  17.7 km/h 85 % 0.00 in /  0 mm 0 W/m2
01:56 38.8 °F /  3.8 °C 34.7 °F /  1.5 °C 30.04 in /  1017.2 hPa West 6.0 mph /  9.7 km/h 11.0 mph /  17.7 km/h 85 % 0.00 in /  0 mm 0 W/m2
02:01 39.0 °F /  3.9 °C 34.9 °F /  1.6 °C 30.04 in /  1017.2 hPa West 7.0 mph /  11.3 km/h 13.0 mph /  20.9 km/h 85 % 0.00 in /  0 mm 0 W/m2
02:06 39.4 °F /  4.1 °C 34.9 °F /  1.6 °C 30.04 in /  1017.2 hPa West 8.0 mph /  12.9 km/h 14.0 mph /  22.5 km/h 84 % 0.00 in /  0 mm 0 W/m2
02:11 39.6 °F /  4.2 °C 35.1 °F /  1.7 °C 30.04 in /  1017.2 hPa West 8.0 mph /  12.9 km/h 14.0 mph /  22.5 km/h 84 % 0.00 in /  0 mm 0 W/m2
02:16 39.7 °F /  4.3 °C 35.0 °F /  1.7 °C 30.04 in /  1017.2 hPa West 7.0 mph /  11.3 km/h 13.0 mph /  20.9 km/h 83 % 0.00 in /  0 mm 0 W/m2
02:21 39.7 °F /  4.3 °C 35.0 °F /  1.7 °C 30.03 in /  1016.8 hPa West 6.0 mph /  9.7 km/h 11.0 mph /  17.7 km/h 83 % 0.00 in /  0 mm 0 W/m2
02:26 39.6 °F /  4.2 °C 34.8 °F /  1.6 °C 30.03 in /  1016.8 hPa West 5.0 mph /  8 km/h 10.0 mph /  16.1 km/h 83 % 0.00 in /  0 mm 0 W/m2
02:31 39.6 °F /  4.2 °C 34.8 °F /  1.6 °C 30.03 in /  1016.8 hPa West 5.0 mph /  8 km/h 10.0 mph /  16.1 km/h 83 % 0.00 in /  0 mm 0 W/m2
02:36 39.6 °F /  4.2 °C 35.1 °F /  1.7 °C 30.03 in /  1016.8 hPa West 6.0 mph /  9.7 km/h 12.0 mph /  19.3 km/h 84 % 0.00 in /  0 mm 0 W/m2
02:41 39.6 °F /  4.2 °C 35.1 °F /  1.7 °C 30.02 in /  1016.5 hPa West 6.0 mph /  9.7 km/h 12.0 mph /  19.3 km/h 84 % 0.00 in /  0 mm 0 W/m2
02:46 39.6 °F /  4.2 °C 35.1 °F /  1.7 °C 30.02 in /  1016.5 hPa West 7.0 mph /  11.3 km/h 11.0 mph /  17.7 km/h 84 % 0.00 in /  0 mm 0 W/m2
02:51 39.6 °F /  4.2 °C 35.1 °F /  1.7 °C 30.02 in /  1016.5 hPa West 8.0 mph /  12.9 km/h 12.0 mph /  19.3 km/h 84 % 0.00 in /  0 mm 0 W/m2
02:56 39.7 °F /  4.3 °C 35.0 °F /  1.7 °C 30.02 in /  1016.5 hPa West 8.0 mph /  12.9 km/h 13.0 mph /  20.9 km/h 83 % 0.00 in /  0 mm 0 W/m2
03:01 39.7 °F /  4.3 °C 35.0 °F /  1.7 °C 30.02 in /  1016.5 hPa West 8.0 mph /  12.9 km/h 13.0 mph /  20.9 km/h 83 % 0.00 in /  0 mm 0 W/m2
03:06 39.7 °F /  4.3 °C 35.0 °F /  1.7 °C 30.02 in /  1016.5 hPa West 7.0 mph /  11.3 km/h 12.0 mph /  19.3 km/h 83 % 0.00 in /  0 mm 0 W/m2
03:11 39.7 °F /  4.3 °C 35.0 °F /  1.7 °C 30.02 in /  1016.5 hPa West 9.0 mph /  14.5 km/h 16.0 mph /  25.7 km/h 83 % 0.00 in /  0 mm 0 W/m2
03:16 39.9 °F /  4.4 °C 35.2 °F /  1.8 °C 30.02 in /  1016.5 hPa West 9.0 mph /  14.5 km/h 16.0 mph /  25.7 km/h 83 % 0.00 in /  0 mm 0 W/m2
03:21 39.9 °F /  4.4 °C 35.2 °F /  1.8 °C 30.02 in /  1016.5 hPa WSW 9.0 mph /  14.5 km/h 13.0 mph /  20.9 km/h 83 % 0.00 in /  0 mm 0 W/m2
03:26 40.3 °F /  4.6 °C 35.5 °F /  1.9 °C 30.02 in /  1016.5 hPa WSW 9.0 mph /  14.5 km/h 18.0 mph /  29 km/h 83 % 0.00 in /  0 mm 0 W/m2
03:31 40.5 °F /  4.7 °C 35.7 °F /  2.1 °C 30.01 in /  1016.1 hPa WSW 10.0 mph /  16.1 km/h 18.0 mph /  29 km/h 83 % 0.00 in /  0 mm 0 W/m2
03:36 40.6 °F /  4.8 °C 35.6 °F /  2 °C 30.01 in /  1016.1 hPa WSW 11.0 mph /  17.7 km/h 19.0 mph /  30.6 km/h 82 % 0.00 in /  0 mm 0 W/m2
03:41 40.6 °F /  4.8 °C 35.6 °F /  2 °C 30.01 in /  1016.1 hPa WSW 11.0 mph /  17.7 km/h 19.0 mph /  30.6 km/h 82 % 0.00 in /  0 mm 0 W/m2
03:46 40.6 °F /  4.8 °C 35.6 °F /  2 °C 30.00 in /  1015.8 hPa WSW 12.0 mph /  19.3 km/h 21.0 mph /  33.8 km/h 82 % 0.00 in /  0 mm 0 W/m2
03:51 40.8 °F /  4.9 °C 35.7 °F /  2.1 °C 30.00 in /  1015.8 hPa WSW 12.0 mph /  19.3 km/h 21.0 mph /  33.8 km/h 82 % 0.00 in /  0 mm 0 W/m2
03:57 40.8 °F /  4.9 °C 35.7 °F /  2.1 °C 30.01 in /  1016.1 hPa WSW 12.0 mph /  19.3 km/h 23.0 mph /  37 km/h 82 % 0.00 in /  0 mm 0 W/m2
04:02 41.0 °F /  5 °C 35.9 °F /  2.2 °C 30.01 in /  1016.1 hPa WSW 12.0 mph /  19.3 km/h 23.0 mph /  37 km/h 82 % 0.00 in /  0 mm 0 W/m2
04:07 41.2 °F /  5.1 °C 35.8 °F /  2.1 °C 30.01 in /  1016.1 hPa WSW 13.0 mph /  20.9 km/h 22.0 mph /  35.4 km/h 81 % 0.00 in /  0 mm 0 W/m2
04:12 41.2 °F /  5.1 °C 35.8 °F /  2.1 °C 30.01 in /  1016.1 hPa WSW 13.0 mph /  20.9 km/h 22.0 mph /  35.4 km/h 81 % 0.00 in /  0 mm 0 W/m2
04:17 41.2 °F /  5.1 °C 35.8 °F /  2.1 °C 30.01 in /  1016.1 hPa WSW 12.0 mph /  19.3 km/h 21.0 mph /  33.8 km/h 81 % 0.00 in /  0 mm 0 W/m2
04:22 41.2 °F /  5.1 °C 35.8 °F /  2.1 °C 30.01 in /  1016.1 hPa WSW 12.0 mph /  19.3 km/h 21.0 mph /  33.8 km/h 81 % 0.00 in /  0 mm 0 W/m2
04:27 41.0 °F /  5 °C 35.6 °F /  2 °C 30.00 in /  1015.8 hPa WSW 11.0 mph /  17.7 km/h 21.0 mph /  33.8 km/h 81 % 0.00 in /  0 mm 0 W/m2
04:32 40.8 °F /  4.9 °C 35.7 °F /  2.1 °C 30.00 in /  1015.8 hPa West 10.0 mph /  16.1 km/h 18.0 mph /  29 km/h 82 % 0.00 in /  0 mm 0 W/m2
04:37 40.8 °F /  4.9 °C 35.7 °F /  2.1 °C 30.00 in /  1015.8 hPa WSW 11.0 mph /  17.7 km/h 18.0 mph /  29 km/h 82 % 0.00 in /  0 mm 0 W/m2
04:42 40.6 °F /  4.8 °C 35.6 °F /  2 °C 30.00 in /  1015.8 hPa West 11.0 mph /  17.7 km/h 20.0 mph /  32.2 km/h 82 % 0.00 in /  0 mm 0 W/m2
04:47 40.6 °F /  4.8 °C 35.6 °F /  2 °C 30.00 in /  1015.8 hPa West 12.0 mph /  19.3 km/h 21.0 mph /  33.8 km/h 82 % 0.00 in /  0 mm 0 W/m2
04:52 40.6 °F /  4.8 °C 35.6 °F /  2 °C 30.00 in /  1015.8 hPa West 13.0 mph /  20.9 km/h 21.0 mph /  33.8 km/h 82 % 0.00 in /  0 mm 0 W/m2
04:57 40.6 °F /  4.8 °C 35.6 °F /  2 °C 30.00 in /  1015.8 hPa West 13.0 mph /  20.9 km/h 20.0 mph /  32.2 km/h 82 % 0.00 in /  0 mm 0 W/m2
05:02 40.6 °F /  4.8 °C 35.3 °F /  1.8 °C 29.99 in /  1015.5 hPa West 12.0 mph /  19.3 km/h 20.0 mph /  32.2 km/h 81 % 0.00 in /  0 mm 0 W/m2
05:07 40.6 °F /  4.8 °C 35.3 °F /  1.8 °C 29.99 in /  1015.5 hPa West 11.0 mph /  17.7 km/h 20.0 mph /  32.2 km/h 81 % 0.00 in /  0 mm 0 W/m2
05:12 40.6 °F /  4.8 °C 35.3 °F /  1.8 °C 29.99 in /  1015.5 hPa West 11.0 mph /  17.7 km/h 20.0 mph /  32.2 km/h 81 % 0.00 in /  0 mm 0 W/m2
05:17 40.6 °F /  4.8 °C 35.3 °F /  1.8 °C 29.99 in /  1015.5 hPa West 11.0 mph /  17.7 km/h 20.0 mph /  32.2 km/h 81 % 0.00 in /  0 mm 0 W/m2
05:22 40.6 °F /  4.8 °C 35.3 °F /  1.8 °C 29.99 in /  1015.5 hPa West 12.0 mph /  19.3 km/h 20.0 mph /  32.2 km/h 81 % 0.00 in /  0 mm 0 W/m2
05:27 40.8 °F /  4.9 °C 35.4 °F /  1.9 °C 29.99 in /  1015.5 hPa West 13.0 mph /  20.9 km/h 21.0 mph /  33.8 km/h 81 % 0.00 in /  0 mm 0 W/m2
05:32 40.8 °F /  4.9 °C 35.4 °F /  1.9 °C 29.99 in /  1015.5 hPa West 12.0 mph /  19.3 km/h 21.0 mph /  33.8 km/h 81 % 0.00 in /  0 mm 0 W/m2
05:37 40.8 °F /  4.9 °C 35.4 °F /  1.9 °C 29.98 in /  1015.1 hPa West 12.0 mph /  19.3 km/h 21.0 mph /  33.8 km/h 81 % 0.00 in /  0 mm 0 W/m2
05:42 41.0 °F /  5 °C 35.6 °F /  2 °C 29.99 in /  1015.5 hPa West 12.0 mph /  19.3 km/h 21.0 mph /  33.8 km/h 81 % 0.00 in /  0 mm 0 W/m2
05:47 41.0 °F /  5 °C 35.6 °F /  2 °C 29.98 in /  1015.1 hPa WSW 13.0 mph /  20.9 km/h 22.0 mph /  35.4 km/h 81 % 0.00 in /  0 mm 0 W/m2
05:52 41.0 °F /  5 °C 35.6 °F /  2 °C 29.98 in /  1015.1 hPa WSW 13.0 mph /  20.9 km/h 22.0 mph /  35.4 km/h 81 % 0.00 in /  0 mm 0 W/m2
05:58 41.0 °F /  5 °C 35.6 °F /  2 °C 29.98 in /  1015.1 hPa WSW 12.0 mph /  19.3 km/h 21.0 mph /  33.8 km/h 81 % 0.00 in /  0 mm 0 W/m2
06:03 41.0 °F /  5 °C 35.6 °F /  2 °C 29.98 in /  1015.1 hPa WSW 12.0 mph /  19.3 km/h 22.0 mph /  35.4 km/h 81 % 0.00 in /  0 mm 0 W/m2
06:08 40.8 °F /  4.9 °C 35.7 °F /  2.1 °C 29.98 in /  1015.1 hPa WSW 11.0 mph /  17.7 km/h 22.0 mph /  35.4 km/h 82 % 0.00 in /  0 mm 0 W/m2
06:13 40.8 °F /  4.9 °C 35.7 °F /  2.1 °C 29.98 in /  1015.1 hPa WSW 10.0 mph /  16.1 km/h 18.0 mph /  29 km/h 82 % 0.00 in /  0 mm 0 W/m2
06:18 40.6 °F /  4.8 °C 35.9 °F /  2.2 °C 29.98 in /  1015.1 hPa WSW 10.0 mph /  16.1 km/h 19.0 mph /  30.6 km/h 83 % 0.00 in /  0 mm 0 W/m2
06:23 40.6 °F /  4.8 °C 35.9 °F /  2.2 °C 29.98 in /  1015.1 hPa West 10.0 mph /  16.1 km/h 19.0 mph /  30.6 km/h 83 % 0.00 in /  0 mm 0 W/m2
06:28 40.6 °F /  4.8 °C 35.9 °F /  2.2 °C 29.98 in /  1015.1 hPa WSW 10.0 mph /  16.1 km/h 22.0 mph /  35.4 km/h 83 % 0.00 in /  0 mm 5 W/m2
06:33 40.6 °F /  4.8 °C 36.2 °F /  2.3 °C 29.98 in /  1015.1 hPa WSW 11.0 mph /  17.7 km/h 22.0 mph /  35.4 km/h 84 % 0.00 in /  0 mm 7 W/m2
06:38 40.6 °F /  4.8 °C 36.2 °F /  2.3 °C 29.98 in /  1015.1 hPa West 11.0 mph /  17.7 km/h 19.0 mph /  30.6 km/h 84 % 0.00 in /  0 mm 11 W/m2
06:43 40.8 °F /  4.9 °C 36.4 °F /  2.4 °C 29.98 in /  1015.1 hPa West 11.0 mph /  17.7 km/h 18.0 mph /  29 km/h 84 % 0.00 in /  0 mm 14 W/m2
06:48 40.8 °F /  4.9 °C 36.4 °F /  2.4 °C 29.98 in /  1015.1 hPa West 9.0 mph /  14.5 km/h 18.0 mph /  29 km/h 84 % 0.00 in /  0 mm 16 W/m2
06:53 40.8 °F /  4.9 °C 36.4 °F /  2.4 °C 29.98 in /  1015.1 hPa WSW 10.0 mph /  16.1 km/h 18.0 mph /  29 km/h 84 % 0.00 in /  0 mm 18 W/m2
06:58 40.8 °F /  4.9 °C 36.1 °F /  2.3 °C 29.98 in /  1015.1 hPa WSW 10.0 mph /  16.1 km/h 20.0 mph /  32.2 km/h 83 % 0.00 in /  0 mm 23 W/m2
07:03 40.8 °F /  4.9 °C 36.1 °F /  2.3 °C 29.98 in /  1015.1 hPa WSW 10.0 mph /  16.1 km/h 20.0 mph /  32.2 km/h 83 % 0.00 in /  0 mm 28 W/m2
07:08 40.8 °F /  4.9 °C 36.1 °F /  2.3 °C 29.98 in /  1015.1 hPa WSW 10.0 mph /  16.1 km/h 21.0 mph /  33.8 km/h 83 % 0.00 in /  0 mm 35 W/m2
07:13 40.6 °F /  4.8 °C 36.2 °F /  2.3 °C 29.98 in /  1015.1 hPa West 11.0 mph /  17.7 km/h 21.0 mph /  33.8 km/h 84 % 0.00 in /  0 mm 40 W/m2
07:18 40.6 °F /  4.8 °C 36.2 °F /  2.3 °C 29.98 in /  1015.1 hPa West 11.0 mph /  17.7 km/h 19.0 mph /  30.6 km/h 84 % 0.00 in /  0 mm 49 W/m2
07:23 40.6 °F /  4.8 °C 36.2 °F /  2.3 °C 29.98 in /  1015.1 hPa WSW 10.0 mph /  16.1 km/h 19.0 mph /  30.6 km/h 84 % 0.00 in /  0 mm 54 W/m2
07:28 40.6 °F /  4.8 °C 36.2 °F /  2.3 °C 29.98 in /  1015.1 hPa West 10.0 mph /  16.1 km/h 19.0 mph /  30.6 km/h 84 % 0.00 in /  0 mm 63 W/m2
07:33 40.6 °F /  4.8 °C 36.2 °F /  2.3 °C 29.98 in /  1015.1 hPa WSW 9.0 mph /  14.5 km/h 15.0 mph /  24.1 km/h 84 % 0.00 in /  0 mm 69 W/m2
07:38 40.8 °F /  4.9 °C 36.4 °F /  2.4 °C 29.98 in /  1015.1 hPa WSW 10.0 mph /  16.1 km/h 19.0 mph /  30.6 km/h 84 % 0.00 in /  0 mm 74 W/m2
07:43 40.8 °F /  4.9 °C 36.4 °F /  2.4 °C 29.98 in /  1015.1 hPa West 11.0 mph /  17.7 km/h 19.0 mph /  30.6 km/h 84 % 0.00 in /  0 mm 86 W/m2
07:48 41.0 °F /  5 °C 36.8 °F /  2.7 °C 29.97 in /  1014.8 hPa West 11.0 mph /  17.7 km/h 18.0 mph /  29 km/h 85 % 0.00 in /  0 mm 100 W/m2
07:53 41.2 °F /  5.1 °C 37.0 °F /  2.8 °C 29.97 in /  1014.8 hPa West 12.0 mph /  19.3 km/h 19.0 mph /  30.6 km/h 85 % 0.00 in /  0 mm 120 W/m2
07:58 41.4 °F /  5.2 °C 37.2 °F /  2.9 °C 29.97 in /  1014.8 hPa WSW 12.0 mph /  19.3 km/h 21.0 mph /  33.8 km/h 85 % 0.00 in /  0 mm 125 W/m2
08:03 41.5 °F /  5.3 °C 37.4 °F /  3 °C 29.97 in /  1014.8 hPa WSW 11.0 mph /  17.7 km/h 21.0 mph /  33.8 km/h 85 % 0.00 in /  0 mm 134 W/m2
08:08 41.7 °F /  5.4 °C 37.5 °F /  3.1 °C 29.98 in /  1015.1 hPa West 12.0 mph /  19.3 km/h 22.0 mph /  35.4 km/h 85 % 0.00 in /  0 mm 132 W/m2
08:13 42.1 °F /  5.6 °C 37.9 °F /  3.3 °C 29.97 in /  1014.8 hPa West 13.0 mph /  20.9 km/h 22.0 mph /  35.4 km/h 85 % 0.00 in /  0 mm 120 W/m2
08:18 42.1 °F /  5.6 °C 37.9 °F /  3.3 °C 29.97 in /  1014.8 hPa West 14.0 mph /  22.5 km/h 22.0 mph /  35.4 km/h 85 % 0.00 in /  0 mm 118 W/m2
08:23 42.3 °F /  5.7 °C 38.1 °F /  3.4 °C 29.97 in /  1014.8 hPa West 14.0 mph /  22.5 km/h 23.0 mph /  37 km/h 85 % 0.00 in /  0 mm 141 W/m2
08:28 42.3 °F /  5.7 °C 38.1 °F /  3.4 °C 29.97 in /  1014.8 hPa WSW 13.0 mph /  20.9 km/h 23.0 mph /  37 km/h 85 % 0.00 in /  0 mm 153 W/m2
08:33 42.3 °F /  5.7 °C 38.1 °F /  3.4 °C 29.97 in /  1014.8 hPa WSW 12.0 mph /  19.3 km/h 24.0 mph /  38.6 km/h 85 % 0.00 in /  0 mm 139 W/m2
08:38 42.4 °F /  5.8 °C 38.5 °F /  3.6 °C 29.97 in /  1014.8 hPa WSW 13.0 mph /  20.9 km/h 24.0 mph /  38.6 km/h 86 % 0.00 in /  0 mm 165 W/m2
08:43 42.6 °F /  5.9 °C 38.4 °F /  3.6 °C 29.97 in /  1014.8 hPa WSW 13.0 mph /  20.9 km/h 21.0 mph /  33.8 km/h 85 % 0.00 in /  0 mm 128 W/m2
08:49 42.6 °F /  5.9 °C 38.4 °F /  3.6 °C 29.97 in /  1014.8 hPa WSW 14.0 mph /  22.5 km/h 25.0 mph /  40.2 km/h 85 % 0.00 in /  0 mm 165 W/m2
08:54 43.0 °F /  6.1 °C 38.8 °F /  3.8 °C 29.97 in /  1014.8 hPa WSW 14.0 mph /  22.5 km/h 25.0 mph /  40.2 km/h 85 % 0.00 in /  0 mm 306 W/m2
08:59 43.3 °F /  6.3 °C 39.1 °F /  3.9 °C 29.96 in /  1014.4 hPa WSW 14.0 mph /  22.5 km/h 23.0 mph /  37 km/h 85 % 0.00 in /  0 mm 271 W/m2
09:04 43.9 °F /  6.6 °C 39.4 °F /  4.1 °C 29.96 in /  1014.4 hPa WSW 14.0 mph /  22.5 km/h 24.0 mph /  38.6 km/h 84 % 0.00 in /  0 mm 364 W/m2
09:09 44.1 °F /  6.7 °C 39.5 °F /  4.2 °C 29.96 in /  1014.4 hPa WSW 14.0 mph /  22.5 km/h 24.0 mph /  38.6 km/h 84 % 0.00 in /  0 mm 427 W/m2
09:14 44.1 °F /  6.7 °C 39.5 °F /  4.2 °C 29.96 in /  1014.4 hPa WSW 15.0 mph /  24.1 km/h 28.0 mph /  45.1 km/h 84 % 0.00 in /  0 mm 272 W/m2
09:19 44.4 °F /  6.9 °C 39.9 °F /  4.4 °C 29.96 in /  1014.4 hPa WSW 14.0 mph /  22.5 km/h 28.0 mph /  45.1 km/h 84 % 0.00 in /  0 mm 283 W/m2
09:24 44.8 °F /  7.1 °C 39.9 °F /  4.4 °C 29.96 in /  1014.4 hPa WSW 14.0 mph /  22.5 km/h 23.0 mph /  37 km/h 83 % 0.00 in /  0 mm 316 W/m2
09:29 45.0 °F /  7.2 °C 40.1 °F /  4.5 °C 29.96 in /  1014.4 hPa WSW 14.0 mph /  22.5 km/h 22.0 mph /  35.4 km/h 83 % 0.00 in /  0 mm 292 W/m2
09:34 45.3 °F /  7.4 °C 40.5 °F /  4.7 °C 29.96 in /  1014.4 hPa WSW 13.0 mph /  20.9 km/h 24.0 mph /  38.6 km/h 83 % 0.00 in /  0 mm 520 W/m2
09:39 45.7 °F /  7.6 °C 40.5 °F /  4.7 °C 29.95 in /  1014.1 hPa WSW 15.0 mph /  24.1 km/h 25.0 mph /  40.2 km/h 82 % 0.00 in /  0 mm 454 W/m2
09:44 45.9 °F /  7.7 °C 40.7 °F /  4.8 °C 29.96 in /  1014.4 hPa WSW 16.0 mph /  25.7 km/h 25.0 mph /  40.2 km/h 82 % 0.00 in /  0 mm 380 W/m2
09:49 45.9 °F /  7.7 °C 40.4 °F /  4.7 °C 29.96 in /  1014.4 hPa WSW 16.0 mph /  25.7 km/h 28.0 mph /  45.1 km/h 81 % 0.00 in /  0 mm 353 W/m2
09:54 45.9 °F /  7.7 °C 40.4 °F /  4.7 °C 29.96 in /  1014.4 hPa WSW 17.0 mph /  27.4 km/h 28.0 mph /  45.1 km/h 81 % 0.00 in /  0 mm 236 W/m2
09:59 45.9 °F /  7.7 °C 40.4 °F /  4.7 °C 29.96 in /  1014.4 hPa WSW 17.0 mph /  27.4 km/h 27.0 mph /  43.5 km/h 81 % 0.00 in /  0 mm 202 W/m2
10:04 45.9 °F /  7.7 °C 40.7 °F /  4.8 °C 29.96 in /  1014.4 hPa WSW 16.0 mph /  25.7 km/h 28.0 mph /  45.1 km/h 82 % 0.00 in /  0 mm 144 W/m2
10:09 45.7 °F /  7.6 °C 40.5 °F /  4.7 °C 29.96 in /  1014.4 hPa WSW 14.0 mph /  22.5 km/h 28.0 mph /  45.1 km/h 82 % 0.00 in /  0 mm 325 W/m2
10:14 45.9 °F /  7.7 °C 40.7 °F /  4.8 °C 29.96 in /  1014.4 hPa WSW 14.0 mph /  22.5 km/h 24.0 mph /  38.6 km/h 82 % 0.00 in /  0 mm 360 W/m2
10:19 46.0 °F /  7.8 °C 41.5 °F /  5.3 °C 29.95 in /  1014.1 hPa WSW 13.0 mph /  20.9 km/h 24.0 mph /  38.6 km/h 84 % 0.00 in /  0 mm 468 W/m2
10:24 46.4 °F /  8 °C 41.8 °F /  5.4 °C 29.95 in /  1014.1 hPa West 12.0 mph /  19.3 km/h 23.0 mph /  37 km/h 84 % 0.00 in /  0 mm 367 W/m2
10:29 46.4 °F /  8 °C 41.8 °F /  5.4 °C 29.95 in /  1014.1 hPa WSW 13.0 mph /  20.9 km/h 23.0 mph /  37 km/h 84 % 0.00 in /  0 mm 394 W/m2
10:34 46.4 °F /  8 °C 41.8 °F /  5.4 °C 29.95 in /  1014.1 hPa WSW 14.0 mph /  22.5 km/h 22.0 mph /  35.4 km/h 84 % 0.00 in /  0 mm 336 W/m2
10:39 46.6 °F /  8.1 °C 42.0 °F /  5.6 °C 29.94 in /  1013.8 hPa West 15.0 mph /  24.1 km/h 22.0 mph /  35.4 km/h 84 % 0.00 in /  0 mm 482 W/m2
10:44 46.8 °F /  8.2 °C 41.9 °F /  5.5 °C 29.94 in /  1013.8 hPa WSW 16.0 mph /  25.7 km/h 26.0 mph /  41.8 km/h 83 % 0.00 in /  0 mm 538 W/m2
10:49 46.8 °F /  8.2 °C 41.9 °F /  5.5 °C 29.94 in /  1013.8 hPa WSW 17.0 mph /  27.4 km/h 27.0 mph /  43.5 km/h 83 % 0.00 in /  0 mm 371 W/m2
10:54 47.1 °F /  8.4 °C 42.2 °F /  5.7 °C 29.94 in /  1013.8 hPa WSW 16.0 mph /  25.7 km/h 27.0 mph /  43.5 km/h 83 % 0.00 in /  0 mm 826 W/m2
10:59 47.5 °F /  8.6 °C 41.6 °F /  5.3 °C 29.94 in /  1013.8 hPa WSW 16.0 mph /  25.7 km/h 28.0 mph /  45.1 km/h 80 % 0.00 in /  0 mm 253 W/m2
11:04 47.5 °F /  8.6 °C 42.3 °F /  5.7 °C 29.94 in /  1013.8 hPa WSW 15.0 mph /  24.1 km/h 28.0 mph /  45.1 km/h 82 % 0.00 in /  0 mm 366 W/m2
11:09 47.5 °F /  8.6 °C 41.9 °F /  5.5 °C 29.94 in /  1013.8 hPa WSW 15.0 mph /  24.1 km/h 26.0 mph /  41.8 km/h 81 % 0.00 in /  0 mm 243 W/m2
11:14 47.3 °F /  8.5 °C 41.8 °F /  5.4 °C 29.93 in /  1013.4 hPa WSW 17.0 mph /  27.4 km/h 28.0 mph /  45.1 km/h 81 % 0.00 in /  0 mm 276 W/m2
11:19 47.5 °F /  8.6 °C 41.9 °F /  5.5 °C 29.94 in /  1013.8 hPa WSW 17.0 mph /  27.4 km/h 28.0 mph /  45.1 km/h 81 % 0.00 in /  0 mm 371 W/m2
11:24 47.5 °F /  8.6 °C 41.9 °F /  5.5 °C 29.94 in /  1013.8 hPa WSW 16.0 mph /  25.7 km/h 26.0 mph /  41.8 km/h 81 % 0.00 in /  0 mm 225 W/m2
11:25 47.5 °F /  8.6 °C 41.9 °F /  5.5 °C 29.94 in /  1013.8 hPa WSW 16.0 mph /  25.7 km/h 26.0 mph /  41.8 km/h 81 % 0.00 in /  0 mm 248 W/m2
11:30 47.5 °F /  8.6 °C 41.9 °F /  5.5 °C 29.93 in /  1013.4 hPa West 16.0 mph /  25.7 km/h 26.0 mph /  41.8 km/h 81 % 0.00 in /  0 mm 301 W/m2
11:35 47.7 °F /  8.7 °C 42.1 °F /  5.6 °C 29.93 in /  1013.4 hPa WSW 15.0 mph /  24.1 km/h 25.0 mph /  40.2 km/h 81 % 0.00 in /  0 mm 315 W/m2
11:40 47.7 °F /  8.7 °C 42.1 °F /  5.6 °C 29.94 in /  1013.8 hPa WSW 15.0 mph /  24.1 km/h 27.0 mph /  43.5 km/h 81 % 0.00 in /  0 mm 246 W/m2
11:45 47.5 °F /  8.6 °C 41.9 °F /  5.5 °C 29.93 in /  1013.4 hPa WSW 16.0 mph /  25.7 km/h 27.0 mph /  43.5 km/h 81 % 0.00 in /  0 mm 295 W/m2
11:50 47.5 °F /  8.6 °C 41.9 °F /  5.5 °C 29.93 in /  1013.4 hPa WSW 15.0 mph /  24.1 km/h 25.0 mph /  40.2 km/h 81 % 0.00 in /  0 mm 309 W/m2
11:55 47.5 °F /  8.6 °C 41.9 °F /  5.5 °C 29.93 in /  1013.4 hPa WSW 15.0 mph /  24.1 km/h 25.0 mph /  40.2 km/h 81 % 0.00 in /  0 mm 248 W/m2
12:00 47.5 °F /  8.6 °C 41.9 °F /  5.5 °C 29.93 in /  1013.4 hPa WSW 14.0 mph /  22.5 km/h 24.0 mph /  38.6 km/h 81 % 0.00 in /  0 mm 151 W/m2
12:05 47.3 °F /  8.5 °C 42.1 °F /  5.6 °C 29.93 in /  1013.4 hPa WSW 14.0 mph /  22.5 km/h 23.0 mph /  37 km/h 82 % 0.00 in /  0 mm 86 W/m2
12:10 46.9 °F /  8.3 °C 41.7 °F /  5.4 °C 29.92 in /  1013.1 hPa WSW 14.0 mph /  22.5 km/h 23.0 mph /  37 km/h 82 % 0.00 in /  0 mm 74 W/m2
12:15 46.9 °F /  8.3 °C 42.0 °F /  5.6 °C 29.92 in /  1013.1 hPa WSW 12.0 mph /  19.3 km/h 24.0 mph /  38.6 km/h 83 % 0.00 in /  0 mm 62 W/m2
12:20 46.8 °F /  8.2 °C 41.9 °F /  5.5 °C 29.92 in /  1013.1 hPa WSW 12.0 mph /  19.3 km/h 24.0 mph /  38.6 km/h 83 % 0.00 in /  0 mm 47 W/m2
12:25 46.8 °F /  8.2 °C 41.9 °F /  5.5 °C 29.92 in /  1013.1 hPa West 13.0 mph /  20.9 km/h 23.0 mph /  37 km/h 83 % 0.00 in /  0 mm 67 W/m2
12:30 46.8 °F /  8.2 °C 41.9 °F /  5.5 °C 29.92 in /  1013.1 hPa West 14.0 mph /  22.5 km/h 24.0 mph /  38.6 km/h 83 % 0.00 in /  0 mm 54 W/m2
12:35 46.8 °F /  8.2 °C 42.2 °F /  5.7 °C 29.92 in /  1013.1 hPa WSW 13.0 mph /  20.9 km/h 24.0 mph /  38.6 km/h 84 % 0.00 in /  0 mm 86 W/m2
12:40 46.6 °F /  8.1 °C 42.3 °F /  5.7 °C 29.91 in /  1012.8 hPa WSW 12.0 mph /  19.3 km/h 20.0 mph /  32.2 km/h 85 % 0.00 in /  0 mm 90 W/m2
12:45 46.6 °F /  8.1 °C 42.6 °F /  5.9 °C 29.91 in /  1012.8 hPa WSW 12.0 mph /  19.3 km/h 21.0 mph /  33.8 km/h 86 % 0.00 in /  0 mm 139 W/m2
12:50 46.6 °F /  8.1 °C 42.9 °F /  6.1 °C 29.91 in /  1012.8 hPa WSW 12.0 mph /  19.3 km/h 21.0 mph /  33.8 km/h 87 % 0.01 in /  0.25 mm 206 W/m2
12:55 46.6 °F /  8.1 °C 42.9 °F /  6.1 °C 29.90 in /  1012.4 hPa WSW 13.0 mph /  20.9 km/h 20.0 mph /  32.2 km/h 87 % 0.01 in /  0.25 mm 178 W/m2
13:00 46.6 °F /  8.1 °C 43.2 °F /  6.2 °C 29.90 in /  1012.4 hPa WSW 12.0 mph /  19.3 km/h 20.0 mph /  32.2 km/h 88 % 0.01 in /  0.25 mm 141 W/m2
13:05 46.8 °F /  8.2 °C 43.1 °F /  6.2 °C 29.90 in /  1012.4 hPa WSW 11.0 mph /  17.7 km/h 18.0 mph /  29 km/h 87 % 0.01 in /  0.25 mm 109 W/m2
13:10 46.8 °F /  8.2 °C 42.8 °F /  6 °C 29.89 in /  1012.1 hPa WSW 12.0 mph /  19.3 km/h 23.0 mph /  37 km/h 86 % 0.01 in /  0.25 mm 98 W/m2
13:15 46.8 °F /  8.2 °C 42.8 °F /  6 °C 29.89 in /  1012.1 hPa WSW 14.0 mph /  22.5 km/h 23.0 mph /  37 km/h 86 % 0.01 in /  0.25 mm 83 W/m2
13:20 46.9 °F /  8.3 °C 42.7 °F /  5.9 °C 29.88 in /  1011.7 hPa WSW 14.0 mph /  22.5 km/h 23.0 mph /  37 km/h 85 % 0.01 in /  0.25 mm 98 W/m2
13:25 46.9 °F /  8.3 °C 42.7 °F /  5.9 °C 29.88 in /  1011.7 hPa WSW 14.0 mph /  22.5 km/h 24.0 mph /  38.6 km/h 85 % 0.01 in /  0.25 mm 81 W/m2
13:27 46.9 °F /  8.3 °C 42.7 °F /  5.9 °C 29.88 in /  1011.7 hPa WSW 14.0 mph /  22.5 km/h 24.0 mph /  38.6 km/h 85 % 0.01 in /  0.25 mm 90 W/m2
13:31 46.9 °F /  8.3 °C 42.7 °F /  5.9 °C 29.88 in /  1011.7 hPa WSW 14.0 mph /  22.5 km/h 24.0 mph /  38.6 km/h 85 % 0.01 in /  0.25 mm 86 W/m2
13:32 46.9 °F /  8.3 °C 42.7 °F /  5.9 °C 29.88 in /  1011.7 hPa WSW 15.0 mph /  24.1 km/h 24.0 mph /  38.6 km/h 85 % 0.01 in /  0.25 mm 88 W/m2
13:37 46.9 °F /  8.3 °C 43.0 °F /  6.1 °C 29.88 in /  1011.7 hPa WSW 14.0 mph /  22.5 km/h 24.0 mph /  38.6 km/h 86 % 0.01 in /  0.25 mm 142 W/m2
13:42 46.9 °F /  8.3 °C 42.7 °F /  5.9 °C 29.87 in /  1011.4 hPa WSW 14.0 mph /  22.5 km/h 24.0 mph /  38.6 km/h 85 % 0.01 in /  0.25 mm 139 W/m2
13:47 46.9 °F /  8.3 °C 43.0 °F /  6.1 °C 29.86 in /  1011.1 hPa WSW 14.0 mph /  22.5 km/h 24.0 mph /  38.6 km/h 86 % 0.00 in /  0 mm 148 W/m2
13:52 47.1 °F /  8.4 °C 43.1 °F /  6.2 °C 29.86 in /  1011.1 hPa SW 12.0 mph /  19.3 km/h 21.0 mph /  33.8 km/h 86 % 0.00 in /  0 mm 137 W/m2
13:57 47.5 °F /  8.6 °C 43.2 °F /  6.2 °C 29.86 in /  1011.1 hPa WSW 12.0 mph /  19.3 km/h 22.0 mph /  35.4 km/h 85 % 0.00 in /  0 mm 146 W/m2
14:02 47.5 °F /  8.6 °C 43.2 °F /  6.2 °C 29.85 in /  1010.7 hPa WSW 12.0 mph /  19.3 km/h 22.0 mph /  35.4 km/h 85 % 0.00 in /  0 mm 93 W/m2
14:08 47.7 °F /  8.7 °C 43.1 °F /  6.2 °C 29.86 in /  1011.1 hPa WSW 11.0 mph /  17.7 km/h 19.0 mph /  30.6 km/h 84 % 0.00 in /  0 mm 83 W/m2
14:13 47.7 °F /  8.7 °C 43.1 °F /  6.2 °C 29.86 in /  1011.1 hPa WSW 11.0 mph /  17.7 km/h 19.0 mph /  30.6 km/h 84 % 0.00 in /  0 mm 81 W/m2
14:18 47.8 °F /  8.8 °C 42.9 °F /  6.1 °C 29.85 in /  1010.7 hPa WSW 12.0 mph /  19.3 km/h 20.0 mph /  32.2 km/h 83 % 0.00 in /  0 mm 76 W/m2
14:23 47.8 °F /  8.8 °C 42.9 °F /  6.1 °C 29.85 in /  1010.7 hPa WSW 12.0 mph /  19.3 km/h 21.0 mph /  33.8 km/h 83 % 0.00 in /  0 mm 90 W/m2
14:28 47.8 °F /  8.8 °C 42.6 °F /  5.9 °C 29.84 in /  1010.4 hPa WSW 14.0 mph /  22.5 km/h 25.0 mph /  40.2 km/h 82 % 0.00 in /  0 mm 93 W/m2
14:33 48.0 °F /  8.9 °C 42.8 °F /  6 °C 29.83 in /  1010 hPa WSW 14.0 mph /  22.5 km/h 25.0 mph /  40.2 km/h 82 % 0.00 in /  0 mm 84 W/m2
14:38 48.0 °F /  8.9 °C 42.8 °F /  6 °C 29.83 in /  1010 hPa WSW 13.0 mph /  20.9 km/h 21.0 mph /  33.8 km/h 82 % 0.00 in /  0 mm 84 W/m2
14:43 48.0 °F /  8.9 °C 42.8 °F /  6 °C 29.83 in /  1010 hPa WSW 12.0 mph /  19.3 km/h 23.0 mph /  37 km/h 82 % 0.00 in /  0 mm 70 W/m2
14:48 48.0 °F /  8.9 °C 43.1 °F /  6.2 °C 29.83 in /  1010 hPa WSW 12.0 mph /  19.3 km/h 23.0 mph /  37 km/h 83 % 0.00 in /  0 mm 53 W/m2
14:53 48.0 °F /  8.9 °C 43.1 °F /  6.2 °C 29.82 in /  1009.7 hPa WSW 13.0 mph /  20.9 km/h 20.0 mph /  32.2 km/h 83 % 0.00 in /  0 mm 49 W/m2
14:58 47.8 °F /  8.8 °C 43.2 °F /  6.2 °C 29.82 in /  1009.7 hPa WSW 11.0 mph /  17.7 km/h 21.0 mph /  33.8 km/h 84 % 0.00 in /  0 mm 51 W/m2
15:03 47.8 °F /  8.8 °C 43.2 °F /  6.2 °C 29.81 in /  1009.4 hPa WSW 11.0 mph /  17.7 km/h 21.0 mph /  33.8 km/h 84 % 0.00 in /  0 mm 77 W/m2
15:08 47.8 °F /  8.8 °C 43.2 °F /  6.2 °C 29.81 in /  1009.4 hPa WSW 12.0 mph /  19.3 km/h 25.0 mph /  40.2 km/h 84 % 0.00 in /  0 mm 84 W/m2
15:13 48.0 °F /  8.9 °C 43.1 °F /  6.2 °C 29.80 in /  1009 hPa WSW 12.0 mph /  19.3 km/h 25.0 mph /  40.2 km/h 83 % 0.00 in /  0 mm 72 W/m2
15:18 48.0 °F /  8.9 °C 42.8 °F /  6 °C 29.80 in /  1009 hPa WSW 15.0 mph /  24.1 km/h 32.0 mph /  51.5 km/h 82 % 0.00 in /  0 mm 74 W/m2
15:23 48.2 °F /  9 °C 43.3 °F /  6.3 °C 29.80 in /  1009 hPa WSW 16.0 mph /  25.7 km/h 32.0 mph /  51.5 km/h 83 % 0.00 in /  0 mm 65 W/m2
15:28 48.0 °F /  8.9 °C 42.8 °F /  6 °C 29.79 in /  1008.7 hPa WSW 14.0 mph /  22.5 km/h 27.0 mph /  43.5 km/h 82 % 0.00 in /  0 mm 84 W/m2
15:33 48.0 °F /  8.9 °C 42.8 °F /  6 °C 29.79 in /  1008.7 hPa WSW 15.0 mph /  24.1 km/h 27.0 mph /  43.5 km/h 82 % 0.00 in /  0 mm 76 W/m2
15:38 48.0 °F /  8.9 °C 42.8 °F /  6 °C 29.79 in /  1008.7 hPa WSW 14.0 mph /  22.5 km/h 25.0 mph /  40.2 km/h 82 % 0.00 in /  0 mm 54 W/m2
15:43 47.8 °F /  8.8 °C 42.9 °F /  6.1 °C 29.79 in /  1008.7 hPa WSW 13.0 mph /  20.9 km/h 25.0 mph /  40.2 km/h 83 % 0.00 in /  0 mm 58 W/m2
15:48 47.7 °F /  8.7 °C 43.1 °F /  6.2 °C 29.78 in /  1008.4 hPa WSW 13.0 mph /  20.9 km/h 26.0 mph /  41.8 km/h 84 % 0.00 in /  0 mm 56 W/m2
15:53 47.5 °F /  8.6 °C 42.6 °F /  5.9 °C 29.78 in /  1008.4 hPa WSW 14.0 mph /  22.5 km/h 26.0 mph /  41.8 km/h 83 % 0.00 in /  0 mm 51 W/m2
15:58 47.5 °F /  8.6 °C 42.9 °F /  6.1 °C 29.77 in /  1008 hPa WSW 13.0 mph /  20.9 km/h 21.0 mph /  33.8 km/h 84 % 0.00 in /  0 mm 56 W/m2
16:03 47.5 °F /  8.6 °C 42.9 °F /  6.1 °C 29.77 in /  1008 hPa WSW 11.0 mph /  17.7 km/h 24.0 mph /  38.6 km/h 84 % 0.00 in /  0 mm 62 W/m2
16:08 47.5 °F /  8.6 °C 42.9 °F /  6.1 °C 29.76 in /  1007.7 hPa WSW 12.0 mph /  19.3 km/h 25.0 mph /  40.2 km/h 84 % 0.00 in /  0 mm 58 W/m2
16:13 47.5 °F /  8.6 °C 43.2 °F /  6.2 °C 29.77 in /  1008 hPa WSW 13.0 mph /  20.9 km/h 25.0 mph /  40.2 km/h 85 % 0.00 in /  0 mm 58 W/m2
16:18 47.3 °F /  8.5 °C 43.3 °F /  6.3 °C 29.76 in /  1007.7 hPa WSW 13.0 mph /  20.9 km/h 24.0 mph /  38.6 km/h 86 % 0.00 in /  0 mm 56 W/m2
16:23 47.3 °F /  8.5 °C 43.0 °F /  6.1 °C 29.76 in /  1007.7 hPa WSW 15.0 mph /  24.1 km/h 30.0 mph /  48.3 km/h 85 % 0.00 in /  0 mm 46 W/m2
16:28 47.5 °F /  8.6 °C 43.2 °F /  6.2 °C 29.75 in /  1007.3 hPa WSW 16.0 mph /  25.7 km/h 30.0 mph /  48.3 km/h 85 % 0.00 in /  0 mm 49 W/m2
16:33 47.5 °F /  8.6 °C 43.2 °F /  6.2 °C 29.74 in /  1007 hPa WSW 17.0 mph /  27.4 km/h 30.0 mph /  48.3 km/h 85 % 0.00 in /  0 mm 63 W/m2
16:38 47.5 °F /  8.6 °C 43.2 °F /  6.2 °C 29.74 in /  1007 hPa WSW 17.0 mph /  27.4 km/h 30.0 mph /  48.3 km/h 85 % 0.00 in /  0 mm 62 W/m2
16:43 47.5 °F /  8.6 °C 43.2 °F /  6.2 °C 29.73 in /  1006.7 hPa WSW 15.0 mph /  24.1 km/h 26.0 mph /  41.8 km/h 85 % 0.00 in /  0 mm 56 W/m2
16:48 47.5 °F /  8.6 °C 43.2 °F /  6.2 °C 29.73 in /  1006.7 hPa WSW 16.0 mph /  25.7 km/h 31.0 mph /  49.9 km/h 85 % 0.00 in /  0 mm 69 W/m2
16:53 47.7 °F /  8.7 °C 43.4 °F /  6.3 °C 29.72 in /  1006.3 hPa WSW 16.0 mph /  25.7 km/h 31.0 mph /  49.9 km/h 85 % 0.00 in /  0 mm 63 W/m2
16:58 47.7 °F /  8.7 °C 43.4 °F /  6.3 °C 29.71 in /  1006 hPa WSW 16.0 mph /  25.7 km/h 29.0 mph /  46.7 km/h 85 % 0.00 in /  0 mm 49 W/m2
17:03 47.7 °F /  8.7 °C 43.4 °F /  6.3 °C 29.72 in /  1006.3 hPa WSW 17.0 mph /  27.4 km/h 29.0 mph /  46.7 km/h 85 % 0.00 in /  0 mm 32 W/m2
17:08 47.7 °F /  8.7 °C 43.4 °F /  6.3 °C 29.71 in /  1006 hPa WSW 15.0 mph /  24.1 km/h 29.0 mph /  46.7 km/h 85 % 0.00 in /  0 mm 32 W/m2
17:13 47.7 °F /  8.7 °C 43.4 °F /  6.3 °C 29.71 in /  1006 hPa WSW 14.0 mph /  22.5 km/h 25.0 mph /  40.2 km/h 85 % 0.00 in /  0 mm 25 W/m2
17:18 47.5 °F /  8.6 °C 43.2 °F /  6.2 °C 29.71 in /  1006 hPa WSW 15.0 mph /  24.1 km/h 27.0 mph /  43.5 km/h 85 % 0.00 in /  0 mm 28 W/m2
17:23 47.5 °F /  8.6 °C 43.5 °F /  6.4 °C 29.70 in /  1005.6 hPa SW 15.0 mph /  24.1 km/h 27.0 mph /  43.5 km/h 86 % 0.00 in /  0 mm 25 W/m2
17:28 47.3 °F /  8.5 °C 43.3 °F /  6.3 °C 29.70 in /  1005.6 hPa SW 14.0 mph /  22.5 km/h 31.0 mph /  49.9 km/h 86 % 0.00 in /  0 mm 21 W/m2
17:33 47.3 °F /  8.5 °C 43.3 °F /  6.3 °C 29.69 in /  1005.3 hPa WSW 15.0 mph /  24.1 km/h 31.0 mph /  49.9 km/h 86 % 0.00 in /  0 mm 18 W/m2
17:38 47.1 °F /  8.4 °C 43.4 °F /  6.3 °C 29.69 in /  1005.3 hPa WSW 13.0 mph /  20.9 km/h 26.0 mph /  41.8 km/h 87 % 0.00 in /  0 mm 12 W/m2
17:43 47.1 °F /  8.4 °C 43.4 °F /  6.3 °C 29.69 in /  1005.3 hPa SW 13.0 mph /  20.9 km/h 27.0 mph /  43.5 km/h 87 % 0.00 in /  0 mm 9 W/m2
17:48 47.1 °F /  8.4 °C 43.4 °F /  6.3 °C 29.68 in /  1005 hPa SW 14.0 mph /  22.5 km/h 27.0 mph /  43.5 km/h 87 % 0.00 in /  0 mm 5 W/m2
17:53 47.3 °F /  8.5 °C 43.6 °F /  6.4 °C 29.67 in /  1004.6 hPa WSW 13.0 mph /  20.9 km/h 22.0 mph /  35.4 km/h 87 % 0.00 in /  0 mm 5 W/m2
17:58 47.3 °F /  8.5 °C 43.6 °F /  6.4 °C 29.67 in /  1004.6 hPa SW 12.0 mph /  19.3 km/h 22.0 mph /  35.4 km/h 87 % 0.00 in /  0 mm 0 W/m2
18:03 47.3 °F /  8.5 °C 43.9 °F /  6.6 °C 29.67 in /  1004.6 hPa WSW 14.0 mph /  22.5 km/h 25.0 mph /  40.2 km/h 88 % 0.00 in /  0 mm 0 W/m2
18:08 47.3 °F /  8.5 °C 43.9 °F /  6.6 °C 29.67 in /  1004.6 hPa WSW 14.0 mph /  22.5 km/h 25.0 mph /  40.2 km/h 88 % 0.00 in /  0 mm 0 W/m2
18:13 47.5 °F /  8.6 °C 44.1 °F /  6.7 °C 29.65 in /  1003.9 hPa SW 14.0 mph /  22.5 km/h 25.0 mph /  40.2 km/h 88 % 0.00 in /  0 mm 0 W/m2
18:18 47.5 °F /  8.6 °C 43.8 °F /  6.6 °C 29.65 in /  1003.9 hPa SW 16.0 mph /  25.7 km/h 30.0 mph /  48.3 km/h 87 % 0.00 in /  0 mm 0 W/m2
18:28 47.7 °F /  8.7 °C 44.0 °F /  6.7 °C 29.65 in /  1003.9 hPa SW 14.0 mph /  22.5 km/h 26.0 mph /  41.8 km/h 87 % 0.00 in /  0 mm 0 W/m2
18:33 47.7 °F /  8.7 °C 44.0 °F /  6.7 °C 29.64 in /  1003.6 hPa WSW 14.0 mph /  22.5 km/h 29.0 mph /  46.7 km/h 87 % 0.00 in /  0 mm 0 W/m2
18:38 47.7 °F /  8.7 °C 44.0 °F /  6.7 °C 29.64 in /  1003.6 hPa WSW 15.0 mph /  24.1 km/h 29.0 mph /  46.7 km/h 87 % 0.00 in /  0 mm 0 W/m2
18:43 47.7 °F /  8.7 °C 44.0 °F /  6.7 °C 29.64 in /  1003.6 hPa SW 16.0 mph /  25.7 km/h 28.0 mph /  45.1 km/h 87 % 0.00 in /  0 mm 0 W/m2
18:48 47.7 °F /  8.7 °C 44.3 °F /  6.8 °C 29.64 in /  1003.6 hPa WSW 17.0 mph /  27.4 km/h 28.0 mph /  45.1 km/h 88 % 0.00 in /  0 mm 0 W/m2
18:53 47.8 °F /  8.8 °C 44.5 °F /  6.9 °C 29.64 in /  1003.6 hPa WSW 16.0 mph /  25.7 km/h 26.0 mph /  41.8 km/h 88 % 0.00 in /  0 mm 0 W/m2
18:58 47.8 °F /  8.8 °C 44.5 °F /  6.9 °C 29.63 in /  1003.3 hPa SW 14.0 mph /  22.5 km/h 26.0 mph /  41.8 km/h 88 % 0.00 in /  0 mm 0 W/m2
19:03 47.8 °F /  8.8 °C 44.5 °F /  6.9 °C 29.63 in /  1003.3 hPa WSW 12.0 mph /  19.3 km/h 25.0 mph /  40.2 km/h 88 % 0.00 in /  0 mm 0 W/m2
19:08 47.8 °F /  8.8 °C 44.5 °F /  6.9 °C 29.63 in /  1003.3 hPa SW 13.0 mph /  20.9 km/h 26.0 mph /  41.8 km/h 88 % 0.00 in /  0 mm 0 W/m2
19:13 48.0 °F /  8.9 °C 44.6 °F /  7 °C 29.62 in /  1002.9 hPa SW 13.0 mph /  20.9 km/h 26.0 mph /  41.8 km/h 88 % 0.00 in /  0 mm 0 W/m2
19:18 48.0 °F /  8.9 °C 44.6 °F /  7 °C 29.62 in /  1002.9 hPa SW 13.0 mph /  20.9 km/h 22.0 mph /  35.4 km/h 88 % 0.00 in /  0 mm 0 W/m2
19:23 48.2 °F /  9 °C 44.8 °F /  7.1 °C 29.62 in /  1002.9 hPa WSW 14.0 mph /  22.5 km/h 24.0 mph /  38.6 km/h 88 % 0.00 in /  0 mm 0 W/m2
19:28 48.2 °F /  9 °C 44.8 °F /  7.1 °C 29.62 in /  1002.9 hPa WSW 13.0 mph /  20.9 km/h 25.0 mph /  40.2 km/h 88 % 0.00 in /  0 mm 0 W/m2
19:34 48.4 °F /  9.1 °C 45.0 °F /  7.2 °C 29.60 in /  1002.3 hPa WSW 13.0 mph /  20.9 km/h 25.0 mph /  40.2 km/h 88 % 0.00 in /  0 mm 0 W/m2
19:39 48.4 °F /  9.1 °C 45.0 °F /  7.2 °C 29.60 in /  1002.3 hPa SW 13.0 mph /  20.9 km/h 24.0 mph /  38.6 km/h 88 % 0.00 in /  0 mm 0 W/m2
19:44 48.6 °F /  9.2 °C 45.2 °F /  7.3 °C 29.60 in /  1002.3 hPa WSW 13.0 mph /  20.9 km/h 23.0 mph /  37 km/h 88 % 0.00 in /  0 mm 0 W/m2
19:49 48.6 °F /  9.2 °C 45.2 °F /  7.3 °C 29.60 in /  1002.3 hPa WSW 12.0 mph /  19.3 km/h 22.0 mph /  35.4 km/h 88 % 0.00 in /  0 mm 0 W/m2
19:54 48.7 °F /  9.3 °C 45.3 °F /  7.4 °C 29.59 in /  1001.9 hPa WSW 12.0 mph /  19.3 km/h 25.0 mph /  40.2 km/h 88 % 0.00 in /  0 mm 0 W/m2
19:59 48.7 °F /  9.3 °C 45.3 °F /  7.4 °C 29.59 in /  1001.9 hPa WSW 12.0 mph /  19.3 km/h 25.0 mph /  40.2 km/h 88 % 0.00 in /  0 mm 0 W/m2
20:04 48.9 °F /  9.4 °C 45.5 °F /  7.5 °C 29.59 in /  1001.9 hPa WSW 11.0 mph /  17.7 km/h 22.0 mph /  35.4 km/h 88 % 0.00 in /  0 mm 0 W/m2
20:09 48.9 °F /  9.4 °C 45.5 °F /  7.5 °C 29.59 in /  1001.9 hPa WSW 12.0 mph /  19.3 km/h 26.0 mph /  41.8 km/h 88 % 0.00 in /  0 mm 0 W/m2
20:14 49.1 °F /  9.5 °C 45.7 °F /  7.6 °C 29.58 in /  1001.6 hPa WSW 13.0 mph /  20.9 km/h 26.0 mph /  41.8 km/h 88 % 0.00 in /  0 mm 0 W/m2
20:19 49.1 °F /  9.5 °C 45.7 °F /  7.6 °C 29.58 in /  1001.6 hPa WSW 13.0 mph /  20.9 km/h 25.0 mph /  40.2 km/h 88 % 0.00 in /  0 mm 0 W/m2
20:24 49.1 °F /  9.5 °C 45.7 °F /  7.6 °C 29.58 in /  1001.6 hPa WSW 13.0 mph /  20.9 km/h 23.0 mph /  37 km/h 88 % 0.00 in /  0 mm 0 W/m2
20:29 49.3 °F /  9.6 °C 45.9 °F /  7.7 °C 29.59 in /  1001.9 hPa WSW 16.0 mph /  25.7 km/h 34.0 mph /  54.7 km/h 88 % 0.00 in /  0 mm 0 W/m2
20:34 49.6 °F /  9.8 °C 46.2 °F /  7.9 °C 29.58 in /  1001.6 hPa WSW 19.0 mph /  30.6 km/h 34.0 mph /  54.7 km/h 88 % 0.00 in /  0 mm 0 W/m2
20:39 49.6 °F /  9.8 °C 46.2 °F /  7.9 °C 29.58 in /  1001.6 hPa West 18.0 mph /  29 km/h 30.0 mph /  48.3 km/h 88 % 0.00 in /  0 mm 0 W/m2
20:44 49.6 °F /  9.8 °C 46.2 °F /  7.9 °C 29.58 in /  1001.6 hPa WSW 18.0 mph /  29 km/h 28.0 mph /  45.1 km/h 88 % 0.00 in /  0 mm 0 W/m2
20:49 49.5 °F /  9.7 °C 46.1 °F /  7.8 °C 29.58 in /  1001.6 hPa WSW 17.0 mph /  27.4 km/h 28.0 mph /  45.1 km/h 88 % 0.00 in /  0 mm 0 W/m2
20:54 49.5 °F /  9.7 °C 46.1 °F /  7.8 °C 29.58 in /  1001.6 hPa West 15.0 mph /  24.1 km/h 27.0 mph /  43.5 km/h 88 % 0.00 in /  0 mm 0 W/m2
20:59 49.3 °F /  9.6 °C 45.9 °F /  7.7 °C 29.58 in /  1001.6 hPa West 12.0 mph /  19.3 km/h 26.0 mph /  41.8 km/h 88 % 0.00 in /  0 mm 0 W/m2
21:04 49.3 °F /  9.6 °C 46.2 °F /  7.9 °C 29.58 in /  1001.6 hPa West 12.0 mph /  19.3 km/h 27.0 mph /  43.5 km/h 89 % 0.00 in /  0 mm 0 W/m2
21:09 49.3 °F /  9.6 °C 46.2 °F /  7.9 °C 29.58 in /  1001.6 hPa West 14.0 mph /  22.5 km/h 28.0 mph /  45.1 km/h 89 % 0.00 in /  0 mm 0 W/m2
21:14 49.5 °F /  9.7 °C 46.4 °F /  8 °C 29.58 in /  1001.6 hPa West 15.0 mph /  24.1 km/h 30.0 mph /  48.3 km/h 89 % 0.00 in /  0 mm 0 W/m2
21:19 49.5 °F /  9.7 °C 46.4 °F /  8 °C 29.58 in /  1001.6 hPa West 17.0 mph /  27.4 km/h 32.0 mph /  51.5 km/h 89 % 0.00 in /  0 mm 0 W/m2
21:24 49.6 °F /  9.8 °C 46.5 °F /  8.1 °C 29.58 in /  1001.6 hPa West 16.0 mph /  25.7 km/h 32.0 mph /  51.5 km/h 89 % 0.00 in /  0 mm 0 W/m2
21:29 49.6 °F /  9.8 °C 46.8 °F /  8.2 °C 29.58 in /  1001.6 hPa West 16.0 mph /  25.7 km/h 29.0 mph /  46.7 km/h 90 % 0.00 in /  0 mm 0 W/m2
21:34 49.6 °F /  9.8 °C 46.8 °F /  8.2 °C 29.58 in /  1001.6 hPa West 14.0 mph /  22.5 km/h 26.0 mph /  41.8 km/h 90 % 0.00 in /  0 mm 0 W/m2
21:39 49.6 °F /  9.8 °C 46.8 °F /  8.2 °C 29.58 in /  1001.6 hPa West 15.0 mph /  24.1 km/h 29.0 mph /  46.7 km/h 90 % 0.00 in /  0 mm 0 W/m2
21:44 49.8 °F /  9.9 °C 47.0 °F /  8.3 °C 29.57 in /  1001.2 hPa West 17.0 mph /  27.4 km/h 29.0 mph /  46.7 km/h 90 % 0.00 in /  0 mm 0 W/m2
21:49 49.6 °F /  9.8 °C 46.8 °F /  8.2 °C 29.58 in /  1001.6 hPa West 15.0 mph /  24.1 km/h 28.0 mph /  45.1 km/h 90 % 0.00 in /  0 mm 0 W/m2
21:54 49.8 °F /  9.9 °C 47.0 °F /  8.3 °C 29.57 in /  1001.2 hPa West 14.0 mph /  22.5 km/h 25.0 mph /  40.2 km/h 90 % 0.00 in /  0 mm 0 W/m2
21:59 49.8 °F /  9.9 °C 47.3 °F /  8.5 °C 29.57 in /  1001.2 hPa West 15.0 mph /  24.1 km/h 28.0 mph /  45.1 km/h 91 % 0.00 in /  0 mm 0 W/m2
22:04 50.2 °F /  10.1 °C 47.7 °F /  8.7 °C 29.57 in /  1001.2 hPa West 16.0 mph /  25.7 km/h 28.0 mph /  45.1 km/h 91 % 0.00 in /  0 mm 0 W/m2
22:09 50.4 °F /  10.2 °C 47.8 °F /  8.8 °C 29.57 in /  1001.2 hPa West 15.0 mph /  24.1 km/h 28.0 mph /  45.1 km/h 91 % 0.00 in /  0 mm 0 W/m2
22:14 50.5 °F /  10.3 °C 47.7 °F /  8.7 °C 29.56 in /  1000.9 hPa West 13.0 mph /  20.9 km/h 28.0 mph /  45.1 km/h 90 % 0.00 in /  0 mm 0 W/m2
22:19 50.7 °F /  10.4 °C 48.2 °F /  9 °C 29.57 in /  1001.2 hPa West 13.0 mph /  20.9 km/h 26.0 mph /  41.8 km/h 91 % 0.00 in /  0 mm 0 W/m2
22:24 50.9 °F /  10.5 °C 48.1 °F /  8.9 °C 29.57 in /  1001.2 hPa West 14.0 mph /  22.5 km/h 26.0 mph /  41.8 km/h 90 % 0.00 in /  0 mm 0 W/m2
22:29 51.3 °F /  10.7 °C 48.4 °F /  9.1 °C 29.57 in /  1001.2 hPa West 13.0 mph /  20.9 km/h 23.0 mph /  37 km/h 90 % 0.00 in /  0 mm 0 W/m2
22:34 51.6 °F /  10.9 °C 48.8 °F /  9.3 °C 29.58 in /  1001.6 hPa West 15.0 mph /  24.1 km/h 30.0 mph /  48.3 km/h 90 % 0.00 in /  0 mm 0 W/m2
22:39 52.0 °F /  11.1 °C 48.8 °F /  9.3 °C 29.58 in /  1001.6 hPa West 16.0 mph /  25.7 km/h 30.0 mph /  48.3 km/h 89 % 0.00 in /  0 mm 0 W/m2
22:44 52.0 °F /  11.1 °C 48.8 °F /  9.3 °C 29.58 in /  1001.6 hPa WNW 16.0 mph /  25.7 km/h 31.0 mph /  49.9 km/h 89 % 0.00 in /  0 mm 0 W/m2
22:49 52.2 °F /  11.2 °C 49.0 °F /  9.4 °C 29.57 in /  1001.2 hPa WNW 15.0 mph /  24.1 km/h 31.0 mph /  49.9 km/h 89 % 0.00 in /  0 mm 0 W/m2
22:54 52.2 °F /  11.2 °C 49.0 °F /  9.4 °C 29.58 in /  1001.6 hPa WNW 17.0 mph /  27.4 km/h 32.0 mph /  51.5 km/h 89 % 0.00 in /  0 mm 0 W/m2
22:59 52.2 °F /  11.2 °C 49.0 °F /  9.4 °C 29.57 in /  1001.2 hPa WNW 19.0 mph /  30.6 km/h 32.0 mph /  51.5 km/h 89 % 0.00 in /  0 mm 0 W/m2
23:04 52.2 °F /  11.2 °C 49.0 °F /  9.4 °C 29.57 in /  1001.2 hPa West 17.0 mph /  27.4 km/h 32.0 mph /  51.5 km/h 89 % 0.00 in /  0 mm 0 W/m2
23:09 52.2 °F /  11.2 °C 49.0 °F /  9.4 °C 29.57 in /  1001.2 hPa West 17.0 mph /  27.4 km/h 30.0 mph /  48.3 km/h 89 % 0.00 in /  0 mm 0 W/m2
23:14 52.2 °F /  11.2 °C 48.7 °F /  9.3 °C 29.57 in /  1001.2 hPa West 19.0 mph /  30.6 km/h 32.0 mph /  51.5 km/h 88 % 0.00 in /  0 mm 0 W/m2
23:19 52.3 °F /  11.3 °C 48.9 °F /  9.4 °C 29.57 in /  1001.2 hPa West 17.0 mph /  27.4 km/h 32.0 mph /  51.5 km/h 88 % 0.00 in /  0 mm 0 W/m2
23:24 52.3 °F /  11.3 °C 48.9 °F /  9.4 °C 29.57 in /  1001.2 hPa WNW 15.0 mph /  24.1 km/h 29.0 mph /  46.7 km/h 88 % 0.00 in /  0 mm 0 W/m2
23:29 52.3 °F /  11.3 °C 48.9 °F /  9.4 °C 29.57 in /  1001.2 hPa WNW 15.0 mph /  24.1 km/h 26.0 mph /  41.8 km/h 88 % 0.00 in /  0 mm 0 W/m2
23:34 52.3 °F /  11.3 °C 48.9 °F /  9.4 °C 29.57 in /  1001.2 hPa WNW 18.0 mph /  29 km/h 30.0 mph /  48.3 km/h 88 % 0.00 in /  0 mm 0 W/m2
23:39 52.3 °F /  11.3 °C 48.6 °F /  9.2 °C 29.57 in /  1001.2 hPa WNW 21.0 mph /  33.8 km/h 35.0 mph /  56.3 km/h 87 % 0.00 in /  0 mm 0 W/m2
23:44 52.3 °F /  11.3 °C 48.6 °F /  9.2 °C 29.57 in /  1001.2 hPa WNW 20.0 mph /  32.2 km/h 36.0 mph /  57.9 km/h 87 % 0.00 in /  0 mm 0 W/m2
23:49 52.3 °F /  11.3 °C 48.6 °F /  9.2 °C 29.57 in /  1001.2 hPa WNW 19.0 mph /  30.6 km/h 36.0 mph /  57.9 km/h 87 % 0.00 in /  0 mm 0 W/m2
23:54 52.3 °F /  11.3 °C 48.6 °F /  9.2 °C 29.57 in /  1001.2 hPa WNW 18.0 mph /  29 km/h 31.0 mph /  49.9 km/h 87 % 0.00 in /  0 mm 0 W/m2
23:59 52.3 °F /  11.3 °C 48.6 °F /  9.2 °C 29.57 in /  1001.2 hPa WNW 17.0 mph /  27.4 km/h 31.0 mph /  49.9 km/h 87 % 0.00 in /  0 mm 0 W/m2
Delerius-Weather
Compliments of Weather Underground - 2.25 mb

Data updates at regular intervals.